Terminal Aerodrome Forecast
Issued by NWS

Current Version | Previous Version | Text Only | Print | Product List | Glossary Off
Versions: 1 2 3 4 5 6 7 8 9 10 11 12 13 14 15 16 17 18 19 20 21 22 23 24 25 26 27 28 29

000
FTUS41 KILN 262100 AAC
TAFLUK
TAF AMD
KLUK 262143Z 2622/2718 19011G18KT P6SM VCTS BKN045CB
      TEMPO 2622/2624 3SM TSRA BKN040CB
     FM270000 20011KT P6SM SCT045 BKN250
     FM270600 21004KT 4SM BR SCT012
      TEMPO 2707/2711 1SM BR
     FM271400 21008KT P6SM FEW035=

USA.gov is the U.S. government's official web portal to all federal, state and local government web resources and services.